sensor_id;sensor_type;location;lat;lon;timestamp;temperature;humidity
11093;DHT22;5600;50.864;6.102;2023-05-02T00:00:10;10.80;99.90
11093;DHT22;5600;50.864;6.102;2023-05-02T00:12:15;10.30;99.90
11093;DHT22;5600;50.864;6.102;2023-05-02T00:21:18;10.40;99.90
11093;DHT22;5600;50.864;6.102;2023-05-02T00:27:20;10.40;99.90
11093;DHT22;5600;50.864;6.102;2023-05-02T00:48:27;10.60;99.90
11093;DHT22;5600;50.864;6.102;2023-05-02T00:54:30;10.60;99.90
11093;DHT22;5600;50.864;6.102;2023-05-02T00:57:32;10.80;99.90
11093;DHT22;5600;50.864;6.102;2023-05-02T01:11:04;10.80;99.90
11093;DHT22;5600;50.864;6.102;2023-05-02T01:14:10;10.90;99.90
11093;DHT22;5600;50.864;6.102;2023-05-02T01:17:13;10.80;99.90
11093;DHT22;5600;50.864;6.102;2023-05-02T01:20:18;10.90;99.90
11093;DHT22;5600;50.864;6.102;2023-05-02T01:30:01;10.90;99.90
11093;DHT22;5600;50.864;6.102;2023-05-02T01:33:04;11.00;99.90
11093;DHT22;5600;50.864;6.102;2023-05-02T01:36:06;10.90;99.90
11093;DHT22;5600;50.864;6.102;2023-05-02T01:39:10;10.80;99.90
11093;DHT22;5600;50.864;6.102;2023-05-02T01:45:15;10.80;99.90
11093;DHT22;5600;50.864;6.102;2023-05-02T01:48:16;10.80;99.90
11093;DHT22;5600;50.864;6.102;2023-05-02T01:51:20;10.90;99.90
11093;DHT22;5600;50.864;6.102;2023-05-02T01:54:22;10.80;99.90
11093;DHT22;5600;50.864;6.102;2023-05-02T02:00:26;10.80;99.90
11093;DHT22;5600;50.864;6.102;2023-05-02T02:03:30;10.80;99.90
11093;DHT22;5600;50.864;6.102;2023-05-02T02:06:31;10.80;99.90
11093;DHT22;5600;50.864;6.102;2023-05-02T02:09:33;10.80;99.90
11093;DHT22;5600;50.864;6.102;2023-05-02T02:12:50;10.80;99.90
11093;DHT22;5600;50.864;6.102;2023-05-02T02:15:56;10.80;99.90
11093;DHT22;5600;50.864;6.102;2023-05-02T02:19:09;10.80;99.90
11093;DHT22;5600;50.864;6.102;2023-05-02T02:22:12;10.80;99.90
11093;DHT22;5600;50.864;6.102;2023-05-02T02:25:15;10.90;99.90
11093;DHT22;5600;50.864;6.102;2023-05-02T02:34:19;10.90;99.90
11093;DHT22;5600;50.864;6.102;2023-05-02T02:37:32;10.80;99.90
11093;DHT22;5600;50.864;6.102;2023-05-02T02:41:15;10.80;99.90
11093;DHT22;5600;50.864;6.102;2023-05-02T02:44:26;10.80;99.90
11093;DHT22;5600;50.864;6.102;2023-05-02T02:50:37;10.80;99.90
11093;DHT22;5600;50.864;6.102;2023-05-02T02:54:05;10.80;99.90
11093;DHT22;5600;50.864;6.102;2023-05-02T02:57:17;10.80;99.90
11093;DHT22;5600;50.864;6.102;2023-05-02T03:00:21;10.80;99.90
11093;DHT22;5600;50.864;6.102;2023-05-02T03:03:23;10.70;99.90
11093;DHT22;5600;50.864;6.102;2023-05-02T03:09:50;10.80;99.90
11093;DHT22;5600;50.864;6.102;2023-05-02T03:37:44;11.10;99.90
11093;DHT22;5600;50.864;6.102;2023-05-02T03:59:14;11.20;99.90
11093;DHT22;5600;50.864;6.102;2023-05-02T04:11:25;11.20;99.90
11093;DHT22;5600;50.864;6.102;2023-05-02T04:17:30;11.20;99.90
11093;DHT22;5600;50.864;6.102;2023-05-02T04:20:32;11.20;99.90
11093;DHT22;5600;50.864;6.102;2023-05-02T04:29:41;11.20;99.90
11093;DHT22;5600;50.864;6.102;2023-05-02T04:32:43;11.20;99.90
11093;DHT22;5600;50.864;6.102;2023-05-02T04:44:51;11.20;99.90
11093;DHT22;5600;50.864;6.102;2023-05-02T05:21:13;10.90;99.90
11093;DHT22;5600;50.864;6.102;2023-05-02T05:30:17;10.90;99.90
11093;DHT22;5600;50.864;6.102;2023-05-02T05:42:23;10.70;99.90
11093;DHT22;5600;50.864;6.102;2023-05-02T05:51:34;10.80;99.90
11093;DHT22;5600;50.864;6.102;2023-05-02T05:54:35;10.80;99.90
11093;DHT22;5600;50.864;6.102;2023-05-02T06:00:37;10.90;99.90
11093;DHT22;5600;50.864;6.102;2023-05-02T06:06:39;11.00;99.90
11093;DHT22;5600;50.864;6.102;2023-05-02T06:12:41;11.00;99.90
11093;DHT22;5600;50.864;6.102;2023-05-02T06:15:44;11.00;99.90
11093;DHT22;5600;50.864;6.102;2023-05-02T06:18:46;11.00;99.90
11093;DHT22;5600;50.864;6.102;2023-05-02T06:21:47;11.00;99.90
11093;DHT22;5600;50.864;6.102;2023-05-02T06:24:48;11.00;99.90
11093;DHT22;5600;50.864;6.102;2023-05-02T06:31:01;10.90;99.90
11093;DHT22;5600;50.864;6.102;2023-05-02T06:49:09;10.70;99.90
11093;DHT22;5600;50.864;6.102;2023-05-02T07:01:13;10.90;99.90
11093;DHT22;5600;50.864;6.102;2023-05-02T07:04:14;10.90;99.90
11093;DHT22;5600;50.864;6.102;2023-05-02T07:28:24;11.30;99.90
11093;DHT22;5600;50.864;6.102;2023-05-02T07:37:32;11.10;99.90
11093;DHT22;5600;50.864;6.102;2023-05-02T07:40:33;11.30;99.90
11093;DHT22;5600;50.864;6.102;2023-05-02T07:46:35;11.40;99.90
11093;DHT22;5600;50.864;6.102;2023-05-02T07:49:36;11.40;99.90
11093;DHT22;5600;50.864;6.102;2023-05-02T07:52:37;11.50;99.90
11093;DHT22;5600;50.864;6.102;2023-05-02T07:58:38;11.90;99.90
11093;DHT22;5600;50.864;6.102;2023-05-02T08:01:39;12.10;99.90
11093;DHT22;5600;50.864;6.102;2023-05-02T08:13:44;12.40;99.90
11093;DHT22;5600;50.864;6.102;2023-05-02T08:19:46;12.30;99.90
11093;DHT22;5600;50.864;6.102;2023-05-02T08:28:53;12.30;99.90
11093;DHT22;5600;50.864;6.102;2023-05-02T08:40:57;12.80;99.90
11093;DHT22;5600;50.864;6.102;2023-05-02T08:44:01;12.80;99.90
11093;DHT22;5600;50.864;6.102;2023-05-02T08:50:05;12.90;99.90
11093;DHT22;5600;50.864;6.102;2023-05-02T08:53:07;12.90;99.90
11093;DHT22;5600;50.864;6.102;2023-05-02T08:56:09;12.90;99.90
11093;DHT22;5600;50.864;6.102;2023-05-02T09:05:36;12.80;99.90
11093;DHT22;5600;50.864;6.102;2023-05-02T09:11:41;12.90;99.90
11093;DHT22;5600;50.864;6.102;2023-05-02T09:14:42;12.90;99.90
11093;DHT22;5600;50.864;6.102;2023-05-02T09:17:45;12.90;99.90
11093;DHT22;5600;50.864;6.102;2023-05-02T09:23:55;12.90;99.90
11093;DHT22;5600;50.864;6.102;2023-05-02T09:27:02;13.00;99.90
11093;DHT22;5600;50.864;6.102;2023-05-02T09:30:23;12.90;99.90
11093;DHT22;5600;50.864;6.102;2023-05-02T09:33:28;12.90;99.90
11093;DHT22;5600;50.864;6.102;2023-05-02T09:36:47;12.80;99.90
11093;DHT22;5600;50.864;6.102;2023-05-02T09:40:05;12.70;99.90
11093;DHT22;5600;50.864;6.102;2023-05-02T09:43:15;12.90;99.90
11093;DHT22;5600;50.864;6.102;2023-05-02T09:52:20;13.50;99.90
11093;DHT22;5600;50.864;6.102;2023-05-02T09:58:24;13.50;99.90
11093;DHT22;5600;50.864;6.102;2023-05-02T10:04:27;13.50;99.90
11093;DHT22;5600;50.864;6.102;2023-05-02T10:07:28;13.60;99.90
11093;DHT22;5600;50.864;6.102;2023-05-02T10:10:29;13.60;99.90
11093;DHT22;5600;50.864;6.102;2023-05-02T10:13:32;13.60;99.90
11093;DHT22;5600;50.864;6.102;2023-05-02T10:16:36;13.50;99.90
11093;DHT22;5600;50.864;6.102;2023-05-02T10:19:46;13.40;99.90
11093;DHT22;5600;50.864;6.102;2023-05-02T10:22:50;13.20;99.90
11093;DHT22;5600;50.864;6.102;2023-05-02T10:25:53;13.10;99.90
11093;DHT22;5600;50.864;6.102;2023-05-02T10:28:55;13.00;99.90
11093;DHT22;5600;50.864;6.102;2023-05-02T10:31:57;13.00;99.90
11093;DHT22;5600;50.864;6.102;2023-05-02T10:35:04;13.10;99.90
11093;DHT22;5600;50.864;6.102;2023-05-02T10:38:06;13.20;99.90
11093;DHT22;5600;50.864;6.102;2023-05-02T10:41:18;13.30;99.90
11093;DHT22;5600;50.864;6.102;2023-05-02T10:44:41;13.30;99.90
11093;DHT22;5600;50.864;6.102;2023-05-02T10:47:42;13.40;99.90
11093;DHT22;5600;50.864;6.102;2023-05-02T11:00:21;13.90;99.90
11093;DHT22;5600;50.864;6.102;2023-05-02T11:13:49;14.00;99.90
11093;DHT22;5600;50.864;6.102;2023-05-02T11:26:21;14.90;99.90
11093;DHT22;5600;50.864;6.102;2023-05-02T11:29:51;15.00;99.90
11093;DHT22;5600;50.864;6.102;2023-05-02T11:35:52;15.10;99.90
11093;DHT22;5600;50.864;6.102;2023-05-02T11:38:53;15.00;99.90
11093;DHT22;5600;50.864;6.102;2023-05-02T11:41:54;14.90;99.90
11093;DHT22;5600;50.864;6.102;2023-05-02T11:44:58;14.80;99.90
11093;DHT22;5600;50.864;6.102;2023-05-02T11:48:00;14.60;99.90
11093;DHT22;5600;50.864;6.102;2023-05-02T11:51:01;14.60;99.90
11093;DHT22;5600;50.864;6.102;2023-05-02T11:54:04;14.60;99.90
11093;DHT22;5600;50.864;6.102;2023-05-02T11:57:07;14.60;99.90
11093;DHT22;5600;50.864;6.102;2023-05-02T12:00:08;14.70;99.90
11093;DHT22;5600;50.864;6.102;2023-05-02T12:03:22;14.90;99.90
11093;DHT22;5600;50.864;6.102;2023-05-02T12:09:24;15.00;99.90
11093;DHT22;5600;50.864;6.102;2023-05-02T12:12:25;15.20;99.90
11093;DHT22;5600;50.864;6.102;2023-05-02T12:15:25;15.50;99.90
11093;DHT22;5600;50.864;6.102;2023-05-02T12:18:26;16.00;99.90
11093;DHT22;5600;50.864;6.102;2023-05-02T12:21:28;16.20;99.90
11093;DHT22;5600;50.864;6.102;2023-05-02T12:24:35;16.00;99.90
11093;DHT22;5600;50.864;6.102;2023-05-02T12:30:38;15.30;99.90
11093;DHT22;5600;50.864;6.102;2023-05-02T12:33:42;15.20;99.90
11093;DHT22;5600;50.864;6.102;2023-05-02T12:43:08;15.10;99.90
11093;DHT22;5600;50.864;6.102;2023-05-02T12:46:10;15.20;99.90
11093;DHT22;5600;50.864;6.102;2023-05-02T12:55:21;15.70;99.90
11093;DHT22;5600;50.864;6.102;2023-05-02T12:58:23;15.50;99.90
11093;DHT22;5600;50.864;6.102;2023-05-02T13:04:38;15.30;99.90
11093;DHT22;5600;50.864;6.102;2023-05-02T13:07:40;15.10;99.90
11093;DHT22;5600;50.864;6.102;2023-05-02T13:10:41;15.10;99.90
11093;DHT22;5600;50.864;6.102;2023-05-02T13:13:42;15.00;99.90
11093;DHT22;5600;50.864;6.102;2023-05-02T13:16:42;14.90;99.90
11093;DHT22;5600;50.864;6.102;2023-05-02T13:19:43;15.10;99.90
11093;DHT22;5600;50.864;6.102;2023-05-02T13:28:46;15.60;99.90
11093;DHT22;5600;50.864;6.102;2023-05-02T13:31:46;15.70;99.90
11093;DHT22;5600;50.864;6.102;2023-05-02T13:37:50;15.80;99.90
11093;DHT22;5600;50.864;6.102;2023-05-02T13:49:56;17.20;99.90
11093;DHT22;5600;50.864;6.102;2023-05-02T13:52:56;17.20;99.90
11093;DHT22;5600;50.864;6.102;2023-05-02T13:55:57;17.10;99.90
11093;DHT22;5600;50.864;6.102;2023-05-02T13:58:58;17.00;99.90
11093;DHT22;5600;50.864;6.102;2023-05-02T14:04:59;16.90;99.90
11093;DHT22;5600;50.864;6.102;2023-05-02T14:11:01;16.50;99.90
11093;DHT22;5600;50.864;6.102;2023-05-02T14:17:03;16.80;99.90
11093;DHT22;5600;50.864;6.102;2023-05-02T14:20:05;17.00;99.90
11093;DHT22;5600;50.864;6.102;2023-05-02T14:26:08;17.60;99.40
11093;DHT22;5600;50.864;6.102;2023-05-02T14:32:10;18.00;99.70
11093;DHT22;5600;50.864;6.102;2023-05-02T14:38:12;18.30;98.60
11093;DHT22;5600;50.864;6.102;2023-05-02T14:41:13;18.30;97.90
11093;DHT22;5600;50.864;6.102;2023-05-02T14:44:14;17.90;98.80
11093;DHT22;5600;50.864;6.102;2023-05-02T14:47:15;17.90;99.40
11093;DHT22;5600;50.864;6.102;2023-05-02T14:50:16;18.20;98.90
11093;DHT22;5600;50.864;6.102;2023-05-02T14:53:17;18.70;97.20
11093;DHT22;5600;50.864;6.102;2023-05-02T14:56:18;18.80;97.30
11093;DHT22;5600;50.864;6.102;2023-05-02T14:59:18;18.60;97.10
11093;DHT22;5600;50.864;6.102;2023-05-02T15:02:19;18.20;97.40
11093;DHT22;5600;50.864;6.102;2023-05-02T15:05:21;18.10;97.60
11093;DHT22;5600;50.864;6.102;2023-05-02T15:08:22;17.90;97.70
11093;DHT22;5600;50.864;6.102;2023-05-02T15:11:23;17.90;97.60
11093;DHT22;5600;50.864;6.102;2023-05-02T15:14:23;18.30;96.80
11093;DHT22;5600;50.864;6.102;2023-05-02T15:17:24;18.60;96.30
11093;DHT22;5600;50.864;6.102;2023-05-02T15:29:28;18.10;95.80
11093;DHT22;5600;50.864;6.102;2023-05-02T15:32:30;17.70;96.40
11093;DHT22;5600;50.864;6.102;2023-05-02T15:35:31;17.10;97.30
11093;DHT22;5600;50.864;6.102;2023-05-02T15:41:38;16.50;97.70
11093;DHT22;5600;50.864;6.102;2023-05-02T15:44:39;16.10;98.70
11093;DHT22;5600;50.864;6.102;2023-05-02T15:47:40;16.50;98.30
11093;DHT22;5600;50.864;6.102;2023-05-02T15:50:41;16.70;97.00
11093;DHT22;5600;50.864;6.102;2023-05-02T15:53:42;16.90;97.10
11093;DHT22;5600;50.864;6.102;2023-05-02T15:56:44;17.10;96.80
11093;DHT22;5600;50.864;6.102;2023-05-02T15:59:46;17.10;98.00
11093;DHT22;5600;50.864;6.102;2023-05-02T16:02:46;17.20;96.80
11093;DHT22;5600;50.864;6.102;2023-05-02T16:05:47;17.00;96.60
11093;DHT22;5600;50.864;6.102;2023-05-02T16:11:49;16.60;97.30
11093;DHT22;5600;50.864;6.102;2023-05-02T16:23:53;16.30;97.10
11093;DHT22;5600;50.864;6.102;2023-05-02T16:29:55;16.40;96.90
11093;DHT22;5600;50.864;6.102;2023-05-02T16:32:56;16.50;96.90
11093;DHT22;5600;50.864;6.102;2023-05-02T16:36:01;16.50;96.70
11093;DHT22;5600;50.864;6.102;2023-05-02T16:39:01;16.70;95.90
11093;DHT22;5600;50.864;6.102;2023-05-02T16:42:02;16.70;96.10
11093;DHT22;5600;50.864;6.102;2023-05-02T16:45:04;16.70;96.80
11093;DHT22;5600;50.864;6.102;2023-05-02T16:51:07;16.90;95.90
11093;DHT22;5600;50.864;6.102;2023-05-02T16:57:08;17.00;95.50
11093;DHT22;5600;50.864;6.102;2023-05-02T17:00:10;17.20;95.60
11093;DHT22;5600;50.864;6.102;2023-05-02T17:03:14;17.30;95.60
11093;DHT22;5600;50.864;6.102;2023-05-02T17:06:16;17.20;95.70
11093;DHT22;5600;50.864;6.102;2023-05-02T17:09:16;17.40;93.70
11093;DHT22;5600;50.864;6.102;2023-05-02T17:12:18;17.60;94.20
11093;DHT22;5600;50.864;6.102;2023-05-02T17:15:22;17.40;94.70
11093;DHT22;5600;50.864;6.102;2023-05-02T17:18:22;17.70;94.50
11093;DHT22;5600;50.864;6.102;2023-05-02T17:21:23;17.90;94.30
11093;DHT22;5600;50.864;6.102;2023-05-02T17:27:25;18.40;93.40
11093;DHT22;5600;50.864;6.102;2023-05-02T17:30:26;18.30;93.30
11093;DHT22;5600;50.864;6.102;2023-05-02T17:33:28;18.10;93.40
11093;DHT22;5600;50.864;6.102;2023-05-02T17:36:29;17.90;93.30
11093;DHT22;5600;50.864;6.102;2023-05-02T17:39:30;17.70;94.40
11093;DHT22;5600;50.864;6.102;2023-05-02T17:42:30;17.40;95.00
11093;DHT22;5600;50.864;6.102;2023-05-02T17:45:31;17.20;94.60
11093;DHT22;5600;50.864;6.102;2023-05-02T17:48:32;16.80;95.60
11093;DHT22;5600;50.864;6.102;2023-05-02T17:51:33;16.30;96.70
11093;DHT22;5600;50.864;6.102;2023-05-02T17:54:33;16.30;97.00
11093;DHT22;5600;50.864;6.102;2023-05-02T17:57:34;15.60;97.80
11093;DHT22;5600;50.864;6.102;2023-05-02T18:00:35;15.50;98.10
11093;DHT22;5600;50.864;6.102;2023-05-02T18:03:36;15.20;97.90
11093;DHT22;5600;50.864;6.102;2023-05-02T18:06:37;15.20;98.20
11093;DHT22;5600;50.864;6.102;2023-05-02T18:09:39;14.80;98.60
11093;DHT22;5600;50.864;6.102;2023-05-02T18:12:39;14.70;99.10
11093;DHT22;5600;50.864;6.102;2023-05-02T18:15:40;14.80;99.10
11093;DHT22;5600;50.864;6.102;2023-05-02T18:18:41;14.80;99.60
11093;DHT22;5600;50.864;6.102;2023-05-02T18:21:45;14.80;99.60
11093;DHT22;5600;50.864;6.102;2023-05-02T18:24:46;14.80;99.60
11093;DHT22;5600;50.864;6.102;2023-05-02T18:27:47;14.80;99.20
11093;DHT22;5600;50.864;6.102;2023-05-02T18:30:47;14.60;99.40
11093;DHT22;5600;50.864;6.102;2023-05-02T18:33:49;14.40;99.80
11093;DHT22;5600;50.864;6.102;2023-05-02T18:36:50;14.20;99.90
11093;DHT22;5600;50.864;6.102;2023-05-02T18:39:51;14.00;99.90
11093;DHT22;5600;50.864;6.102;2023-05-02T18:42:52;13.80;99.90
11093;DHT22;5600;50.864;6.102;2023-05-02T18:45:53;13.70;99.90
11093;DHT22;5600;50.864;6.102;2023-05-02T18:48:53;13.50;99.90
11093;DHT22;5600;50.864;6.102;2023-05-02T18:51:54;13.40;99.90
11093;DHT22;5600;50.864;6.102;2023-05-02T18:54:55;13.30;99.90
11093;DHT22;5600;50.864;6.102;2023-05-02T18:57:56;13.20;99.90
11093;DHT22;5600;50.864;6.102;2023-05-02T19:00:56;13.00;99.90
11093;DHT22;5600;50.864;6.102;2023-05-02T19:03:58;12.90;99.90
11093;DHT22;5600;50.864;6.102;2023-05-02T19:07:00;12.60;99.90
11093;DHT22;5600;50.864;6.102;2023-05-02T19:10:00;12.50;99.90
11093;DHT22;5600;50.864;6.102;2023-05-02T19:13:01;12.30;99.90
11093;DHT22;5600;50.864;6.102;2023-05-02T19:16:02;12.10;99.90
11093;DHT22;5600;50.864;6.102;2023-05-02T19:19:03;11.90;99.90
11093;DHT22;5600;50.864;6.102;2023-05-02T19:25:05;11.50;99.90
11093;DHT22;5600;50.864;6.102;2023-05-02T19:28:08;11.40;99.90
11093;DHT22;5600;50.864;6.102;2023-05-02T19:31:09;11.10;99.90
11093;DHT22;5600;50.864;6.102;2023-05-02T19:34:10;10.90;99.90
11093;DHT22;5600;50.864;6.102;2023-05-02T19:44:35;10.70;99.90
11093;DHT22;5600;50.864;6.102;2023-05-02T19:47:36;10.80;99.90
11093;DHT22;5600;50.864;6.102;2023-05-02T19:50:37;10.80;99.90
11093;DHT22;5600;50.864;6.102;2023-05-02T19:59:42;10.70;99.90
11093;DHT22;5600;50.864;6.102;2023-05-02T20:08:45;10.60;99.90
11093;DHT22;5600;50.864;6.102;2023-05-02T20:11:46;10.60;99.90
11093;DHT22;5600;50.864;6.102;2023-05-02T20:17:47;10.60;99.90
11093;DHT22;5600;50.864;6.102;2023-05-02T20:20:48;10.50;99.90
11093;DHT22;5600;50.864;6.102;2023-05-02T20:23:49;10.50;99.90
11093;DHT22;5600;50.864;6.102;2023-05-02T20:35:53;10.00;99.90
11093;DHT22;5600;50.864;6.102;2023-05-02T20:44:59;9.70;99.90
11093;DHT22;5600;50.864;6.102;2023-05-02T20:48:00;9.50;99.90
11093;DHT22;5600;50.864;6.102;2023-05-02T20:54:01;9.40;99.90
11093;DHT22;5600;50.864;6.102;2023-05-02T20:57:02;9.40;99.90
11093;DHT22;5600;50.864;6.102;2023-05-02T21:00:04;9.40;99.90
11093;DHT22;5600;50.864;6.102;2023-05-02T21:03:04;9.40;99.90
11093;DHT22;5600;50.864;6.102;2023-05-02T21:30:18;8.60;99.90
11093;DHT22;5600;50.864;6.102;2023-05-02T21:33:19;8.60;99.90
11093;DHT22;5600;50.864;6.102;2023-05-02T21:48:23;8.80;99.90
11093;DHT22;5600;50.864;6.102;2023-05-02T21:51:24;8.90;99.90
11093;DHT22;5600;50.864;6.102;2023-05-02T22:12:33;9.10;99.90
11093;DHT22;5600;50.864;6.102;2023-05-02T22:15:34;9.20;99.90
11093;DHT22;5600;50.864;6.102;2023-05-02T22:18:36;9.10;99.90
11093;DHT22;5600;50.864;6.102;2023-05-02T22:30:41;8.60;99.90
11093;DHT22;5600;50.864;6.102;2023-05-02T22:33:42;8.40;99.90
11093;DHT22;5600;50.864;6.102;2023-05-02T22:36:45;8.20;99.90
11093;DHT22;5600;50.864;6.102;2023-05-02T23:04:00;7.10;99.90
11093;DHT22;5600;50.864;6.102;2023-05-02T23:25:08;7.40;99.90
11093;DHT22;5600;50.864;6.102;2023-05-02T23:28:08;7.30;99.90
11093;DHT22;5600;50.864;6.102;2023-05-02T23:31:09;7.00;99.90
11093;DHT22;5600;50.864;6.102;2023-05-02T23:34:10;7.00;99.90
11093;DHT22;5600;50.864;6.102;2023-05-02T23:37:11;6.80;99.90
11093;DHT22;5600;50.864;6.102;2023-05-02T23:40:13;6.50;99.90
11093;DHT22;5600;50.864;6.102;2023-05-02T23:43:14;6.40;99.90
11093;DHT22;5600;50.864;6.102;2023-05-02T23:46:15;6.40;99.90
11093;DHT22;5600;50.864;6.102;2023-05-02T23:49:15;6.30;99.90
11093;DHT22;5600;50.864;6.102;2023-05-02T23:52:16;6.30;99.90
11093;DHT22;5600;50.864;6.102;2023-05-02T23:55:17;6.20;99.90
11093;DHT22;5600;50.864;6.102;2023-05-02T23:58:17;6.40;99.90
